Elm Lake, South Dakota
Current Conditions -  °F | °C
As of 7:53 AM on Tuesday 21 Oct 2014 (Local Time) from KABR Reporting Station
Clear Clear  
Wind Chill: 50°   Ceiling: Unl
Heat Index: 50°   Visibility: 10mi
Dew Point: 38°   Wind: 12mph
Humidity: 63%   Direction: 150°SSE
Pressure: 29.95"   Gusts: NA
Location:  45.8594°N, 98.5623°W
Report Text: KABR 211253Z AUTO 15010KT 10SM CLR 10/03 A2995 RMK AO2 SLP145 T01000033
Loading
Personal Weather Stations






























Interactive Weather Map
Tropical Storm Tracking
New forecast layout! Learn more

10-Day Weather Forecast

Advertisements
Track Severe Weather on mobile